createdAt,value
2019-03-29T00:04:52.971Z,13.88
2019-03-29T00:09:56.810Z,13.86
2019-03-29T00:15:00.390Z,13.91
2019-03-29T00:20:06.171Z,13.90
2019-03-29T00:25:09.841Z,13.87
2019-03-29T00:30:13.890Z,13.87
2019-03-29T00:35:17.421Z,13.85
2019-03-29T00:40:20.969Z,13.84
2019-03-29T00:45:24.540Z,13.87
2019-03-29T00:50:28.038Z,13.88
2019-03-29T00:55:31.581Z,13.85
2019-03-29T01:00:35.104Z,13.85
2019-03-29T01:05:38.605Z,13.77
2019-03-29T01:10:42.813Z,13.77
2019-03-29T01:15:46.358Z,13.76
2019-03-29T01:20:49.896Z,13.71
2019-03-29T01:25:53.426Z,13.71
2019-03-29T01:30:56.942Z,13.74
2019-03-29T01:36:01.301Z,13.76
2019-03-29T01:41:05.695Z,13.67
2019-03-29T01:46:09.230Z,13.65
2019-03-29T01:51:12.856Z,13.66
2019-03-29T01:56:16.439Z,13.45
2019-03-29T02:01:19.941Z,13.14
2019-03-29T02:06:23.488Z,12.81
2019-03-29T02:11:27.033Z,12.51
2019-03-29T02:16:30.544Z,12.19
2019-03-29T02:21:34.058Z,11.93
2019-03-29T02:26:37.569Z,11.73
2019-03-29T02:31:42.377Z,11.48
2019-03-29T02:36:46.399Z,11.34
2019-03-29T02:41:49.911Z,11.15
2019-03-29T02:46:53.866Z,11.02
2019-03-29T02:51:57.835Z,10.97
2019-03-29T02:57:01.419Z,11.02
2019-03-29T03:02:05.063Z,10.75
2019-03-29T03:07:08.597Z,10.69
2019-03-29T03:12:12.126Z,10.77
2019-03-29T03:17:15.676Z,10.76
2019-03-29T03:22:19.324Z,10.70
2019-03-29T03:27:23.698Z,10.65
2019-03-29T03:38:31.020Z,10.27
2019-03-29T03:43:34.551Z,10.05
2019-03-29T03:48:38.338Z,9.99
2019-03-29T03:53:42.011Z,9.99
2019-03-29T03:58:46.570Z,9.97
2019-03-29T04:03:50.123Z,9.98
2019-03-29T04:08:53.667Z,10.00
2019-03-29T04:13:58.631Z,10.06
2019-03-29T04:19:02.279Z,10.10
2019-03-29T04:24:05.838Z,10.10
2019-03-29T04:29:09.648Z,10.06
2019-03-29T04:34:13.864Z,9.96
2019-03-29T04:39:17.703Z,9.87
2019-03-29T04:44:21.427Z,9.71
2019-03-29T04:49:25.039Z,9.59
2019-03-29T04:54:28.602Z,9.55
2019-03-29T04:59:32.179Z,9.51
2019-03-29T05:04:35.735Z,9.40
2019-03-29T05:09:39.291Z,9.27
2019-03-29T05:14:42.972Z,9.26
2019-03-29T05:19:46.580Z,9.08
2019-03-29T05:24:50.177Z,9.13
2019-03-29T05:29:53.964Z,9.25
2019-03-29T05:34:58.313Z,9.22
2019-03-29T05:40:02.450Z,9.25
2019-03-29T05:45:07.173Z,9.22
2019-03-29T05:50:11.024Z,9.28
2019-03-29T05:55:14.571Z,9.36
2019-03-29T06:00:19.530Z,9.50
2019-03-29T06:05:23.091Z,9.52
2019-03-29T06:10:26.622Z,9.69
2019-03-29T06:15:30.146Z,9.82
2019-03-29T06:20:33.712Z,10.01
2019-03-29T06:25:37.283Z,10.18
2019-03-29T06:30:40.859Z,10.35
2019-03-29T06:35:49.526Z,10.56
2019-03-29T06:41:02.710Z,10.81
2019-03-29T06:45:58.496Z,11.08
2019-03-29T06:51:02.023Z,11.33
2019-03-29T06:56:05.685Z,11.57
2019-03-29T07:01:09.224Z,11.79
2019-03-29T07:06:12.775Z,12.02
2019-03-29T07:11:17.964Z,12.25
2019-03-29T07:16:21.755Z,12.40
2019-03-29T07:21:25.304Z,12.49
2019-03-29T07:26:28.852Z,12.55
2019-03-29T07:31:32.392Z,12.76
2019-03-29T07:36:35.923Z,12.96
2019-03-29T07:41:39.481Z,13.14
2019-03-29T07:46:43.056Z,13.30
2019-03-29T07:51:46.654Z,13.49
2019-03-29T07:56:50.226Z,13.74
2019-03-29T08:01:53.770Z,13.95
2019-03-29T08:06:57.312Z,13.83
2019-03-29T08:12:00.858Z,14.12
2019-03-29T08:17:04.398Z,14.38
2019-03-29T08:22:07.928Z,14.59
2019-03-29T08:27:11.467Z,14.83
2019-03-29T08:32:15.018Z,15.02
2019-03-29T08:37:18.571Z,15.22
2019-03-29T08:42:22.104Z,15.36
2019-03-29T08:47:25.631Z,15.51
2019-03-29T08:52:29.265Z,15.70
2019-03-29T08:57:32.798Z,15.81
2019-03-29T09:02:36.595Z,15.95
2019-03-29T09:07:44.963Z,16.00
2019-03-29T09:12:45.561Z,16.08
2019-03-29T09:17:49.205Z,16.15
2019-03-29T09:22:52.756Z,16.18
2019-03-29T09:27:56.297Z,16.19
2019-03-29T09:32:59.834Z,16.29
2019-03-29T09:38:03.392Z,16.41
2019-03-29T09:43:08.030Z,16.59
2019-03-29T09:48:12.063Z,16.70
2019-03-29T09:53:15.617Z,16.85
2019-03-29T09:58:19.159Z,16.97
2019-03-29T10:03:22.710Z,17.10
2019-03-29T10:08:26.256Z,17.15
2019-03-29T10:13:29.793Z,17.26
2019-03-29T10:18:33.364Z,17.37
2019-03-29T10:23:36.904Z,17.36
2019-03-29T10:28:40.458Z,17.46
2019-03-29T10:33:43.994Z,17.68
2019-03-29T10:38:47.575Z,17.77
2019-03-29T10:43:51.117Z,17.88
2019-03-29T10:48:54.667Z,17.96
2019-03-29T10:53:58.193Z,17.97
2019-03-29T10:59:01.723Z,18.10
2019-03-29T11:04:05.270Z,18.08
2019-03-29T11:09:08.855Z,18.23
2019-03-29T11:14:12.392Z,18.42
2019-03-29T11:19:15.951Z,18.46
2019-03-29T11:24:19.482Z,18.46
2019-03-29T11:29:23.023Z,18.64
2019-03-29T11:34:26.601Z,18.63
2019-03-29T11:39:30.167Z,18.71
2019-03-29T11:44:37.385Z,18.78
2019-03-29T11:49:40.915Z,18.83
2019-03-29T11:54:51.230Z,19.00
2019-03-29T11:59:56.031Z,19.06
2019-03-29T12:05:01.058Z,19.08
2019-03-29T12:10:06.396Z,19.14
2019-03-29T12:15:10.558Z,19.23
2019-03-29T12:20:14.102Z,19.23
2019-03-29T12:25:17.649Z,19.22
2019-03-29T12:30:31.138Z,19.28
2019-03-29T12:35:29.713Z,19.42
2019-03-29T12:40:48.822Z,19.52
2019-03-29T12:46:01.468Z,19.54
2019-03-29T12:51:14.833Z,19.66
2019-03-29T12:56:42.194Z,19.67
2019-03-29T13:01:50.973Z,19.76
2019-03-29T13:07:06.862Z,19.89
2019-03-29T13:12:10.750Z,19.67
2019-03-29T13:17:15.771Z,19.62
2019-03-29T13:22:20.501Z,19.52
2019-03-29T13:27:26.284Z,19.51
2019-03-29T13:32:33.593Z,19.64
2019-03-29T13:37:39.168Z,19.81
2019-03-29T13:42:45.013Z,19.82
2019-03-29T13:47:50.067Z,19.95
2019-03-29T13:52:53.662Z,19.94
2019-03-29T13:57:57.194Z,19.74
2019-03-29T14:03:00.732Z,20.01
2019-03-29T14:08:04.299Z,20.05
2019-03-29T14:13:07.828Z,20.12
2019-03-29T14:18:11.395Z,20.23
2019-03-29T14:23:14.931Z,20.37
2019-03-29T14:28:18.468Z,20.11
2019-03-29T14:33:22.120Z,20.22
2019-03-29T14:38:25.662Z,20.27
2019-03-29T14:43:29.195Z,20.16
2019-03-29T14:48:32.736Z,20.25
2019-03-29T14:53:36.286Z,20.49
2019-03-29T14:58:39.829Z,20.70
2019-03-29T15:03:43.372Z,20.89
2019-03-29T15:08:49.734Z,20.83
2019-03-29T15:13:52.533Z,20.85
2019-03-29T15:18:56.090Z,20.99
2019-03-29T15:24:00.262Z,21.18
2019-03-29T15:29:04.512Z,21.34
2019-03-29T15:34:08.311Z,21.39
2019-03-29T15:39:11.851Z,21.43
2019-03-29T15:44:15.414Z,21.46
2019-03-29T15:49:18.966Z,21.47
2019-03-29T15:54:22.517Z,21.22
2019-03-29T15:59:26.151Z,21.31
2019-03-29T16:04:29.686Z,21.21
2019-03-29T16:09:33.410Z,21.27
2019-03-29T16:14:37.046Z,21.20
2019-03-29T16:19:41.374Z,21.16
2019-03-29T16:24:45.870Z,21.31
2019-03-29T16:29:50.518Z,21.27
2019-03-29T16:34:54.195Z,20.99
2019-03-29T16:39:57.723Z,20.73
2019-03-29T16:45:01.280Z,20.54
2019-03-29T16:50:05.661Z,20.44
2019-03-29T16:55:13.641Z,20.38
2019-03-29T17:00:15.040Z,20.19
2019-03-29T17:05:21.181Z,19.88
2019-03-29T17:10:24.777Z,19.78
2019-03-29T17:15:30.606Z,19.66
2019-03-29T17:20:34.145Z,19.53
2019-03-29T17:25:37.775Z,19.33
2019-03-29T17:30:48.633Z,19.01
2019-03-29T17:35:52.269Z,18.73
2019-03-29T17:41:02.934Z,18.55
2019-03-29T17:46:16.234Z,18.36
2019-03-29T17:51:11.912Z,18.20
2019-03-29T17:56:15.496Z,18.08
2019-03-29T18:01:19.080Z,17.87
2019-03-29T18:06:22.635Z,17.70
2019-03-29T18:11:26.185Z,17.86
2019-03-29T18:16:31.107Z,17.35
2019-03-29T18:21:34.853Z,16.98
2019-03-29T18:26:38.404Z,16.70
2019-03-29T18:31:41.945Z,16.53
2019-03-29T18:36:49.373Z,16.39
2019-03-29T18:41:52.903Z,16.25
2019-03-29T18:46:56.442Z,16.14
2019-03-29T18:52:00.884Z,16.08
2019-03-29T18:57:04.770Z,15.96
2019-03-29T19:02:08.309Z,15.84
2019-03-29T19:07:11.858Z,15.74
2019-03-29T19:12:15.442Z,15.69
2019-03-29T19:17:19.207Z,15.62
2019-03-29T19:22:22.802Z,15.43
2019-03-29T19:27:26.408Z,15.26
2019-03-29T19:32:29.961Z,15.08
2019-03-29T19:37:33.540Z,14.99
2019-03-29T19:42:37.105Z,14.91
2019-03-29T19:47:40.648Z,14.81
2019-03-29T19:52:44.188Z,14.70
2019-03-29T19:57:47.882Z,14.60
2019-03-29T20:02:51.526Z,14.48
2019-03-29T20:07:56.101Z,14.33
2019-03-29T20:13:00.095Z,14.16
2019-03-29T20:18:03.696Z,14.08
2019-03-29T20:23:07.268Z,13.96
2019-03-29T20:28:10.858Z,13.88
2019-03-29T20:33:14.400Z,13.80
2019-03-29T20:38:18.009Z,13.61
2019-03-29T20:43:21.536Z,13.28
2019-03-29T20:48:25.080Z,13.29
2019-03-29T20:53:28.634Z,13.33
2019-03-29T20:58:32.296Z,13.23
2019-03-29T21:03:35.968Z,13.19
2019-03-29T21:08:39.490Z,13.10
2019-03-29T21:13:43.178Z,12.93
2019-03-29T21:18:46.764Z,12.81
2019-03-29T21:23:50.323Z,12.86
2019-03-29T21:28:58.282Z,12.61
2019-03-29T21:34:12.919Z,12.46
2019-03-29T21:39:23.632Z,12.48
2019-03-29T21:44:31.346Z,12.10
2019-03-29T21:49:43.821Z,11.77
2019-03-29T21:54:51.893Z,11.99
2019-03-29T22:00:01.824Z,11.94
2019-03-29T22:05:12.686Z,11.94
2019-03-29T22:10:32.484Z,11.92
2019-03-29T22:15:37.513Z,11.91
2019-03-29T22:20:56.380Z,11.75
2019-03-29T22:26:09.371Z,11.64
2019-03-29T22:31:22.769Z,11.66
2019-03-29T22:36:27.421Z,11.61
2019-03-29T22:41:36.068Z,11.60
2019-03-29T22:46:42.474Z,11.44
2019-03-29T22:52:00.621Z,11.41
2019-03-29T22:57:07.217Z,11.43
2019-03-29T23:02:25.961Z,11.35
2019-03-29T23:07:29.629Z,11.28
2019-03-29T23:12:33.229Z,11.30
2019-03-29T23:17:36.778Z,11.10
2019-03-29T23:22:40.510Z,11.12
2019-03-29T23:27:44.073Z,11.23
2019-03-29T23:32:47.673Z,11.15
2019-03-29T23:37:51.243Z,11.14
2019-03-29T23:42:54.770Z,11.07
2019-03-29T23:47:58.399Z,10.97
2019-03-29T23:53:02.258Z,10.89
2019-03-29T23:58:05.888Z,10.86
